This is the latest recevied weather packets stored in our database for station/object JF2ZGN-13. If no packets are shown the sender has not sent any weather packets the latest 10 day(s).
| Time | Temp. | Humidity | Pressure | Rain* | Wind** | Luminosity | Snow |
|---|---|---|---|---|---|---|---|
| 1777946193 | 13.89° C | 46% | 911.6 hPa | 0 mm | - | - | - |
| 1777945592 | 13.33° C | 46% | 911.4 hPa | 0 mm | - | - | - |
| 1777944991 | 12.78° C | 49% | 911.4 hPa | 0 mm | - | - | - |
| 1777944391 | 13.33° C | 46% | 911.1 hPa | 0 mm | - | - | - |
| 1777943792 | 13.33° C | 45% | 910.9 hPa | 0 mm | - | - | - |
| 1777943190 | 12.78° C | 50% | 911 hPa | 0 mm | - | - | - |
| 1777942589 | 12.78° C | 47% | 910.8 hPa | 0 mm | - | - | - |
| 1777941990 | 12.78° C | 44% | 910.8 hPa | 0 mm | - | - | - |
| 1777941389 | 12.78° C | 47% | 910.6 hPa | 0 mm | - | - | - |
| 1777940788 | 12.78° C | 48% | 910.5 hPa | 0 mm | - | - | - |
| 1777940188 | 12.22° C | 49% | 910.2 hPa | 0 mm | - | - | - |
| 1777939587 | 11.67° C | 45% | 910 hPa | 0 mm | - | - | - |
| 1777938987 | 11.11° C | 53% | 910 hPa | 0 mm | - | - | - |
| 1777938387 | 11.11° C | 52% | 909.9 hPa | 0 mm | - | - | - |
| 1777937786 | 11.11° C | 51% | 909.8 hPa | 0 mm | - | - | - |
| 1777937186 | 11.11° C | 51% | 909.7 hPa | 0 mm | - | - | - |
| 1777936585 | 11.11° C | 51% | 909.7 hPa | 0 mm | - | - | - |
| 1777935985 | 10.56° C | 53% | 909.5 hPa | 0 mm | - | - | - |
| 1777935384 | 10.56° C | 54% | 909.3 hPa | 0 mm | - | - | - |
| 1777934784 | 10.56° C | 49% | 909.2 hPa | 0 mm | - | - | - |
| 1777934183 | 10° C | 54% | 909 hPa | 0 mm | - | - | - |
| 1777933583 | 9.44° C | 54% | 908.7 hPa | 0 mm | - | - | - |
| 1777932982 | 8.89° C | 55% | 908.5 hPa | 0 mm | - | - | - |
| 1777932382 | 8.33° C | 58% | 908.4 hPa | 0 mm | - | - | - |
| 1777931781 | 8.33° C | 57% | 908.2 hPa | 0 mm | - | - | - |
* Rain since midnight (hover to see other rain measurements)
** Current wind speed in m/s (hover to see current wind gust speed)